sensor_id;sensor_type;location;lat;lon;timestamp;temperature;humidity
78708;SHT31;68037;51.978;5.650;2023-03-01T00:02:15;5.9;43.6
78708;SHT31;68037;51.978;5.650;2023-03-01T00:04:45;5.9;43.8
78708;SHT31;68037;51.978;5.650;2023-03-01T00:07:15;5.9;44.1
78708;SHT31;68037;51.978;5.650;2023-03-01T00:09:46;5.9;44.0
78708;SHT31;68037;51.978;5.650;2023-03-01T00:12:17;5.9;43.6
78708;SHT31;68037;51.978;5.650;2023-03-01T00:14:46;5.9;43.6
78708;SHT31;68037;51.978;5.650;2023-03-01T00:17:16;5.9;44.7
78708;SHT31;68037;51.978;5.650;2023-03-01T00:19:46;5.9;43.5
78708;SHT31;68037;51.978;5.650;2023-03-01T00:22:16;5.9;43.5
78708;SHT31;68037;51.978;5.650;2023-03-01T00:24:45;5.9;43.6
78708;SHT31;68037;51.978;5.650;2023-03-01T00:27:15;5.9;44.0
78708;SHT31;68037;51.978;5.650;2023-03-01T00:29:44;5.8;43.5
78708;SHT31;68037;51.978;5.650;2023-03-01T00:32:14;5.8;44.1
78708;SHT31;68037;51.978;5.650;2023-03-01T00:34:43;5.8;44.3
78708;SHT31;68037;51.978;5.650;2023-03-01T00:37:18;5.7;44.4
78708;SHT31;68037;51.978;5.650;2023-03-01T00:39:48;5.7;44.5
78708;SHT31;68037;51.978;5.650;2023-03-01T00:42:18;5.7;44.5
78708;SHT31;68037;51.978;5.650;2023-03-01T00:44:49;5.7;44.3
78708;SHT31;68037;51.978;5.650;2023-03-01T00:47:19;5.6;44.5
78708;SHT31;68037;51.978;5.650;2023-03-01T00:49:48;5.6;44.5
78708;SHT31;68037;51.978;5.650;2023-03-01T00:52:18;5.6;44.7
78708;SHT31;68037;51.978;5.650;2023-03-01T00:54:47;5.5;44.6
78708;SHT31;68037;51.978;5.650;2023-03-01T00:57:17;5.5;44.9
78708;SHT31;68037;51.978;5.650;2023-03-01T00:59:46;5.5;44.9
78708;SHT31;68037;51.978;5.650;2023-03-01T01:02:15;5.5;45.3
78708;SHT31;68037;51.978;5.650;2023-03-01T01:04:45;5.5;45.3
78708;SHT31;68037;51.978;5.650;2023-03-01T01:07:16;5.5;44.6
78708;SHT31;68037;51.978;5.650;2023-03-01T01:09:52;5.5;44.7
78708;SHT31;68037;51.978;5.650;2023-03-01T01:12:26;5.6;44.6
78708;SHT31;68037;51.978;5.650;2023-03-01T01:14:57;5.6;44.9
78708;SHT31;68037;51.978;5.650;2023-03-01T01:17:26;5.6;44.6
78708;SHT31;68037;51.978;5.650;2023-03-01T01:19:56;5.6;44.7
78708;SHT31;68037;51.978;5.650;2023-03-01T01:22:25;5.7;44.7
78708;SHT31;68037;51.978;5.650;2023-03-01T01:24:55;5.7;44.4
78708;SHT31;68037;51.978;5.650;2023-03-01T01:27:26;5.7;44.3
78708;SHT31;68037;51.978;5.650;2023-03-01T01:29:55;5.8;44.4
78708;SHT31;68037;51.978;5.650;2023-03-01T01:32:25;5.8;44.0
78708;SHT31;68037;51.978;5.650;2023-03-01T01:34:57;5.8;43.8
78708;SHT31;68037;51.978;5.650;2023-03-01T01:37:28;5.8;44.1
78708;SHT31;68037;51.978;5.650;2023-03-01T01:40:02;5.8;43.6
78708;SHT31;68037;51.978;5.650;2023-03-01T01:42:34;5.8;44.1
78708;SHT31;68037;51.978;5.650;2023-03-01T01:45:30;5.7;44.1
78708;SHT31;68037;51.978;5.650;2023-03-01T01:48:03;5.7;43.7
78708;SHT31;68037;51.978;5.650;2023-03-01T01:50:36;5.6;44.3
78708;SHT31;68037;51.978;5.650;2023-03-01T01:53:17;5.6;44.6
78708;SHT31;68037;51.978;5.650;2023-03-01T01:55:53;5.5;44.5
78708;SHT31;68037;51.978;5.650;2023-03-01T01:58:26;5.5;44.4
78708;SHT31;68037;51.978;5.650;2023-03-01T02:00:57;5.4;44.5
78708;SHT31;68037;51.978;5.650;2023-03-01T02:03:31;5.4;44.9
78708;SHT31;68037;51.978;5.650;2023-03-01T02:06:15;5.3;45.1
78708;SHT31;68037;51.978;5.650;2023-03-01T02:08:49;5.2;45.2
78708;SHT31;68037;51.978;5.650;2023-03-01T02:11:21;5.1;45.6
78708;SHT31;68037;51.978;5.650;2023-03-01T02:13:51;5.0;46.1
78708;SHT31;68037;51.978;5.650;2023-03-01T02:16:22;4.9;46.2
78708;SHT31;68037;51.978;5.650;2023-03-01T02:18:52;4.8;46.6
78708;SHT31;68037;51.978;5.650;2023-03-01T02:21:32;4.8;46.7
78708;SHT31;68037;51.978;5.650;2023-03-01T02:24:21;4.7;46.6
78708;SHT31;68037;51.978;5.650;2023-03-01T02:26:50;4.6;47.1
78708;SHT31;68037;51.978;5.650;2023-03-01T02:29:22;4.5;47.5
78708;SHT31;68037;51.978;5.650;2023-03-01T02:31:54;4.4;48.0
78708;SHT31;68037;51.978;5.650;2023-03-01T02:34:26;4.4;47.8
78708;SHT31;68037;51.978;5.650;2023-03-01T02:37:00;4.3;48.0
78708;SHT31;68037;51.978;5.650;2023-03-01T02:39:36;4.3;48.1
78708;SHT31;68037;51.978;5.650;2023-03-01T02:42:13;4.3;47.8
78708;SHT31;68037;51.978;5.650;2023-03-01T02:44:44;4.3;47.7
78708;SHT31;68037;51.978;5.650;2023-03-01T02:47:15;4.2;48.2
78708;SHT31;68037;51.978;5.650;2023-03-01T02:49:45;4.1;48.1
78708;SHT31;68037;51.978;5.650;2023-03-01T02:52:30;4.1;48.5
78708;SHT31;68037;51.978;5.650;2023-03-01T02:55:07;4.0;48.6
78708;SHT31;68037;51.978;5.650;2023-03-01T02:57:40;3.9;48.7
78708;SHT31;68037;51.978;5.650;2023-03-01T03:00:13;3.8;48.9
78708;SHT31;68037;51.978;5.650;2023-03-01T03:02:47;3.8;49.3
78708;SHT31;68037;51.978;5.650;2023-03-01T03:05:20;3.7;49.2
78708;SHT31;68037;51.978;5.650;2023-03-01T03:07:52;3.7;49.8
78708;SHT31;68037;51.978;5.650;2023-03-01T03:10:25;3.6;50.1
78708;SHT31;68037;51.978;5.650;2023-03-01T03:12:58;3.6;50.2
78708;SHT31;68037;51.978;5.650;2023-03-01T03:15:28;3.6;49.9
78708;SHT31;68037;51.978;5.650;2023-03-01T03:17:59;3.6;49.8
78708;SHT31;68037;51.978;5.650;2023-03-01T03:20:29;3.6;49.8
78708;SHT31;68037;51.978;5.650;2023-03-01T03:22:59;3.6;49.8
78708;SHT31;68037;51.978;5.650;2023-03-01T03:25:29;3.6;49.8
78708;SHT31;68037;51.978;5.650;2023-03-01T03:27:59;3.5;49.5
78708;SHT31;68037;51.978;5.650;2023-03-01T03:30:30;3.5;50.0
78708;SHT31;68037;51.978;5.650;2023-03-01T03:33:00;3.6;50.1
78708;SHT31;68037;51.978;5.650;2023-03-01T03:35:32;3.6;50.2
78708;SHT31;68037;51.978;5.650;2023-03-01T03:38:07;3.6;50.0
78708;SHT31;68037;51.978;5.650;2023-03-01T03:40:46;3.6;50.2
78708;SHT31;68037;51.978;5.650;2023-03-01T03:43:18;3.6;50.0
78708;SHT31;68037;51.978;5.650;2023-03-01T03:45:49;3.6;49.9
78708;SHT31;68037;51.978;5.650;2023-03-01T03:48:20;3.5;50.7
78708;SHT31;68037;51.978;5.650;2023-03-01T03:50:51;3.5;50.1
78708;SHT31;68037;51.978;5.650;2023-03-01T03:53:24;3.4;50.4
78708;SHT31;68037;51.978;5.650;2023-03-01T03:55:53;3.4;50.6
78708;SHT31;68037;51.978;5.650;2023-03-01T03:58:24;3.3;50.5
78708;SHT31;68037;51.978;5.650;2023-03-01T04:00:56;3.3;50.6
78708;SHT31;68037;51.978;5.650;2023-03-01T04:03:27;3.2;50.8
78708;SHT31;68037;51.978;5.650;2023-03-01T04:05:59;3.2;51.0
78708;SHT31;68037;51.978;5.650;2023-03-01T04:08:29;3.2;51.2
78708;SHT31;68037;51.978;5.650;2023-03-01T04:11:00;3.1;51.1
78708;SHT31;68037;51.978;5.650;2023-03-01T04:13:36;3.1;51.5
78708;SHT31;68037;51.978;5.650;2023-03-01T04:16:06;3.1;51.5
78708;SHT31;68037;51.978;5.650;2023-03-01T04:18:36;3.1;51.5
78708;SHT31;68037;51.978;5.650;2023-03-01T04:21:05;3.0;51.7
78708;SHT31;68037;51.978;5.650;2023-03-01T04:23:35;3.0;51.6
78708;SHT31;68037;51.978;5.650;2023-03-01T04:26:05;3.0;51.8
78708;SHT31;68037;51.978;5.650;2023-03-01T04:28:36;3.0;52.5
78708;SHT31;68037;51.978;5.650;2023-03-01T04:31:09;3.0;52.5
78708;SHT31;68037;51.978;5.650;2023-03-01T04:33:44;3.0;52.3
78708;SHT31;68037;51.978;5.650;2023-03-01T04:36:16;3.0;51.8
78708;SHT31;68037;51.978;5.650;2023-03-01T04:38:46;2.9;51.6
78708;SHT31;68037;51.978;5.650;2023-03-01T04:41:18;2.9;51.8
78708;SHT31;68037;51.978;5.650;2023-03-01T04:43:48;2.9;52.4
78708;SHT31;68037;51.978;5.650;2023-03-01T04:46:20;2.9;52.2
78708;SHT31;68037;51.978;5.650;2023-03-01T04:48:50;2.9;51.9
78708;SHT31;68037;51.978;5.650;2023-03-01T04:51:22;2.9;52.6
78708;SHT31;68037;51.978;5.650;2023-03-01T04:53:55;3.0;52.9
78708;SHT31;68037;51.978;5.650;2023-03-01T04:56:25;3.1;52.0
78708;SHT31;68037;51.978;5.650;2023-03-01T04:58:55;3.2;52.8
78708;SHT31;68037;51.978;5.650;2023-03-01T05:01:24;3.2;51.6
78708;SHT31;68037;51.978;5.650;2023-03-01T05:03:54;3.3;51.9
78708;SHT31;68037;51.978;5.650;2023-03-01T05:06:29;3.3;51.0
78708;SHT31;68037;51.978;5.650;2023-03-01T05:08:59;3.4;50.7
78708;SHT31;68037;51.978;5.650;2023-03-01T05:11:28;3.4;51.0
78708;SHT31;68037;51.978;5.650;2023-03-01T05:14:03;3.4;50.9
78708;SHT31;68037;51.978;5.650;2023-03-01T05:16:36;3.5;51.9
78708;SHT31;68037;51.978;5.650;2023-03-01T05:19:06;3.5;51.0
78708;SHT31;68037;51.978;5.650;2023-03-01T05:21:39;3.6;49.8
78708;SHT31;68037;51.978;5.650;2023-03-01T05:24:13;3.6;49.8
78708;SHT31;68037;51.978;5.650;2023-03-01T05:26:44;3.5;50.0
78708;SHT31;68037;51.978;5.650;2023-03-01T05:29:15;3.4;49.6
78708;SHT31;68037;51.978;5.650;2023-03-01T05:31:46;3.4;49.6
78708;SHT31;68037;51.978;5.650;2023-03-01T05:34:15;3.3;49.9
78708;SHT31;68037;51.978;5.650;2023-03-01T05:36:45;3.2;50.5
78708;SHT31;68037;51.978;5.650;2023-03-01T05:39:14;3.1;50.4
78708;SHT31;68037;51.978;5.650;2023-03-01T05:41:44;3.0;50.6
78708;SHT31;68037;51.978;5.650;2023-03-01T05:44:13;3.0;51.0
78708;SHT31;68037;51.978;5.650;2023-03-01T05:46:43;2.9;51.2
78708;SHT31;68037;51.978;5.650;2023-03-01T05:49:14;2.9;51.7
78708;SHT31;68037;51.978;5.650;2023-03-01T05:51:48;2.8;51.8
78708;SHT31;68037;51.978;5.650;2023-03-01T05:54:19;2.7;52.2
78708;SHT31;68037;51.978;5.650;2023-03-01T05:56:50;2.7;52.3
78708;SHT31;68037;51.978;5.650;2023-03-01T05:59:20;2.6;52.7
78708;SHT31;68037;51.978;5.650;2023-03-01T06:01:51;2.6;52.7
78708;SHT31;68037;51.978;5.650;2023-03-01T06:04:21;2.6;53.1
78708;SHT31;68037;51.978;5.650;2023-03-01T06:06:50;2.5;53.4
78708;SHT31;68037;51.978;5.650;2023-03-01T06:09:20;2.5;53.4
78708;SHT31;68037;51.978;5.650;2023-03-01T06:11:50;2.5;53.7
78708;SHT31;68037;51.978;5.650;2023-03-01T06:14:23;2.5;54.0
78708;SHT31;68037;51.978;5.650;2023-03-01T06:16:52;2.5;54.3
78708;SHT31;68037;51.978;5.650;2023-03-01T06:19:21;2.6;53.7
78708;SHT31;68037;51.978;5.650;2023-03-01T06:21:51;2.6;53.1
78708;SHT31;68037;51.978;5.650;2023-03-01T06:24:21;2.6;53.3
78708;SHT31;68037;51.978;5.650;2023-03-01T06:26:52;2.6;53.4
78708;SHT31;68037;51.978;5.650;2023-03-01T06:29:21;2.6;53.5
78708;SHT31;68037;51.978;5.650;2023-03-01T06:31:51;2.6;53.7
78708;SHT31;68037;51.978;5.650;2023-03-01T06:34:21;2.5;53.6
78708;SHT31;68037;51.978;5.650;2023-03-01T06:36:50;2.5;53.9
78708;SHT31;68037;51.978;5.650;2023-03-01T06:39:20;2.5;54.0
78708;SHT31;68037;51.978;5.650;2023-03-01T06:41:49;2.5;53.7
78708;SHT31;68037;51.978;5.650;2023-03-01T06:44:19;2.5;54.3
78708;SHT31;68037;51.978;5.650;2023-03-01T06:46:48;2.6;54.9
78708;SHT31;68037;51.978;5.650;2023-03-01T06:49:20;2.7;54.5
78708;SHT31;68037;51.978;5.650;2023-03-01T06:51:51;2.9;54.2
78708;SHT31;68037;51.978;5.650;2023-03-01T06:54:23;3.1;53.3
78708;SHT31;68037;51.978;5.650;2023-03-01T06:56:52;3.2;53.0
78708;SHT31;68037;51.978;5.650;2023-03-01T06:59:21;3.4;52.8
78708;SHT31;68037;51.978;5.650;2023-03-01T07:01:51;3.5;52.4
78708;SHT31;68037;51.978;5.650;2023-03-01T07:04:29;3.6;52.0
78708;SHT31;68037;51.978;5.650;2023-03-01T07:07:00;3.7;51.7
78708;SHT31;68037;51.978;5.650;2023-03-01T07:09:34;3.8;51.7
78708;SHT31;68037;51.978;5.650;2023-03-01T07:12:04;3.9;51.1
78708;SHT31;68037;51.978;5.650;2023-03-01T07:14:35;3.9;51.3
78708;SHT31;68037;51.978;5.650;2023-03-01T07:17:05;3.9;51.1
78708;SHT31;68037;51.978;5.650;2023-03-01T07:19:34;3.9;51.5
78708;SHT31;68037;51.978;5.650;2023-03-01T07:22:05;3.9;51.8
78708;SHT31;68037;51.978;5.650;2023-03-01T07:24:36;4.0;52.0
78708;SHT31;68037;51.978;5.650;2023-03-01T07:27:08;4.0;51.7
78708;SHT31;68037;51.978;5.650;2023-03-01T07:29:38;4.1;51.9
78708;SHT31;68037;51.978;5.650;2023-03-01T07:32:12;4.2;51.7
78708;SHT31;68037;51.978;5.650;2023-03-01T07:34:42;4.2;51.8
78708;SHT31;68037;51.978;5.650;2023-03-01T07:37:11;4.3;51.9
78708;SHT31;68037;51.978;5.650;2023-03-01T07:39:41;4.3;51.9
78708;SHT31;68037;51.978;5.650;2023-03-01T07:42:10;4.3;51.8
78708;SHT31;68037;51.978;5.650;2023-03-01T07:44:40;4.3;52.2
78708;SHT31;68037;51.978;5.650;2023-03-01T07:47:09;4.3;52.3
78708;SHT31;68037;51.978;5.650;2023-03-01T07:49:39;4.2;52.5
78708;SHT31;68037;51.978;5.650;2023-03-01T07:52:09;4.2;52.5
78708;SHT31;68037;51.978;5.650;2023-03-01T07:54:39;4.2;52.5
78708;SHT31;68037;51.978;5.650;2023-03-01T07:57:09;4.2;52.1
78708;SHT31;68037;51.978;5.650;2023-03-01T07:59:41;4.2;52.7
78708;SHT31;68037;51.978;5.650;2023-03-01T08:02:11;4.2;53.3
78708;SHT31;68037;51.978;5.650;2023-03-01T08:04:42;4.2;52.9
78708;SHT31;68037;51.978;5.650;2023-03-01T08:07:13;4.2;52.2
78708;SHT31;68037;51.978;5.650;2023-03-01T08:09:42;4.2;51.7
78708;SHT31;68037;51.978;5.650;2023-03-01T08:12:12;4.3;51.7
78708;SHT31;68037;51.978;5.650;2023-03-01T08:14:43;4.3;51.6
78708;SHT31;68037;51.978;5.650;2023-03-01T08:17:15;4.3;51.7
78708;SHT31;68037;51.978;5.650;2023-03-01T08:19:45;4.3;51.4
78708;SHT31;68037;51.978;5.650;2023-03-01T08:22:15;4.3;51.8
78708;SHT31;68037;51.978;5.650;2023-03-01T08:24:44;4.3;50.8
78708;SHT31;68037;51.978;5.650;2023-03-01T08:27:16;4.3;51.4
78708;SHT31;68037;51.978;5.650;2023-03-01T08:29:46;4.3;50.9
78708;SHT31;68037;51.978;5.650;2023-03-01T08:32:15;4.3;50.8
78708;SHT31;68037;51.978;5.650;2023-03-01T08:34:47;4.4;51.1
78708;SHT31;68037;51.978;5.650;2023-03-01T08:37:17;4.4;51.7
78708;SHT31;68037;51.978;5.650;2023-03-01T08:39:46;4.5;51.5
78708;SHT31;68037;51.978;5.650;2023-03-01T08:42:16;4.7;51.4
78708;SHT31;68037;51.978;5.650;2023-03-01T08:44:45;4.7;49.7
78708;SHT31;68037;51.978;5.650;2023-03-01T08:47:17;4.8;49.9
78708;SHT31;68037;51.978;5.650;2023-03-01T08:49:48;4.8;49.7
78708;SHT31;68037;51.978;5.650;2023-03-01T08:52:18;4.9;50.0
78708;SHT31;68037;51.978;5.650;2023-03-01T08:54:54;4.9;49.3
78708;SHT31;68037;51.978;5.650;2023-03-01T08:57:24;5.0;50.1
78708;SHT31;68037;51.978;5.650;2023-03-01T08:59:53;5.2;48.9
78708;SHT31;68037;51.978;5.650;2023-03-01T09:02:23;5.3;47.9
78708;SHT31;68037;51.978;5.650;2023-03-01T09:04:53;5.4;48.0
78708;SHT31;68037;51.978;5.650;2023-03-01T09:07:23;5.4;48.0
78708;SHT31;68037;51.978;5.650;2023-03-01T09:09:55;5.5;48.2
78708;SHT31;68037;51.978;5.650;2023-03-01T09:12:25;5.6;48.9
78708;SHT31;68037;51.978;5.650;2023-03-01T09:14:54;5.7;48.1
78708;SHT31;68037;51.978;5.650;2023-03-01T09:17:24;5.7;47.3
78708;SHT31;68037;51.978;5.650;2023-03-01T09:19:56;5.8;47.7
78708;SHT31;68037;51.978;5.650;2023-03-01T09:22:27;5.9;47.0
78708;SHT31;68037;51.978;5.650;2023-03-01T09:24:56;6.0;46.9
78708;SHT31;68037;51.978;5.650;2023-03-01T09:27:26;6.1;47.2
78708;SHT31;68037;51.978;5.650;2023-03-01T09:29:55;6.2;46.5
78708;SHT31;68037;51.978;5.650;2023-03-01T09:32:26;6.3;47.2
78708;SHT31;68037;51.978;5.650;2023-03-01T09:34:55;6.4;47.4
78708;SHT31;68037;51.978;5.650;2023-03-01T09:37:35;6.6;46.5
78708;SHT31;68037;51.978;5.650;2023-03-01T09:40:06;6.7;45.5
78708;SHT31;68037;51.978;5.650;2023-03-01T09:42:48;6.8;45.0
78708;SHT31;68037;51.978;5.650;2023-03-01T09:45:26;6.9;45.2
78708;SHT31;68037;51.978;5.650;2023-03-01T09:47:56;6.9;44.7
78708;SHT31;68037;51.978;5.650;2023-03-01T09:50:31;7.0;42.7
78708;SHT31;68037;51.978;5.650;2023-03-01T09:53:05;7.0;43.6
78708;SHT31;68037;51.978;5.650;2023-03-01T09:55:40;7.0;42.8
78708;SHT31;68037;51.978;5.650;2023-03-01T09:58:39;7.1;43.5
78708;SHT31;68037;51.978;5.650;2023-03-01T10:01:28;7.2;42.3
78708;SHT31;68037;51.978;5.650;2023-03-01T10:04:17;7.3;42.7
78708;SHT31;68037;51.978;5.650;2023-03-01T10:06:58;7.4;42.1
78708;SHT31;68037;51.978;5.650;2023-03-01T10:09:34;7.5;40.9
78708;SHT31;68037;51.978;5.650;2023-03-01T10:12:09;7.5;40.8
78708;SHT31;68037;51.978;5.650;2023-03-01T10:14:47;7.6;41.1
78708;SHT31;68037;51.978;5.650;2023-03-01T10:17:28;7.6;40.7
78708;SHT31;68037;51.978;5.650;2023-03-01T10:20:18;7.6;40.8
78708;SHT31;68037;51.978;5.650;2023-03-01T10:22:48;7.7;39.3
78708;SHT31;68037;51.978;5.650;2023-03-01T10:25:36;7.8;39.9
78708;SHT31;68037;51.978;5.650;2023-03-01T10:28:18;7.8;39.5
78708;SHT31;68037;51.978;5.650;2023-03-01T10:30:49;7.8;40.0
78708;SHT31;68037;51.978;5.650;2023-03-01T10:33:22;7.9;40.5
78708;SHT31;68037;51.978;5.650;2023-03-01T10:35:52;7.9;39.5
78708;SHT31;68037;51.978;5.650;2023-03-01T10:38:22;8.0;39.5
78708;SHT31;68037;51.978;5.650;2023-03-01T10:40:55;8.0;38.3
78708;SHT31;68037;51.978;5.650;2023-03-01T10:43:28;8.1;39.3
78708;SHT31;68037;51.978;5.650;2023-03-01T10:46:01;8.1;38.6
78708;SHT31;68037;51.978;5.650;2023-03-01T10:48:30;8.2;38.5
78708;SHT31;68037;51.978;5.650;2023-03-01T10:51:07;8.2;38.7
78708;SHT31;68037;51.978;5.650;2023-03-01T10:53:40;8.3;38.3
78708;SHT31;68037;51.978;5.650;2023-03-01T10:56:11;8.3;37.3
78708;SHT31;68037;51.978;5.650;2023-03-01T10:58:58;8.4;37.8
78708;SHT31;68037;51.978;5.650;2023-03-01T11:01:30;8.4;38.1
78708;SHT31;68037;51.978;5.650;2023-03-01T11:04:10;8.4;37.9
78708;SHT31;68037;51.978;5.650;2023-03-01T11:06:41;8.5;38.0
78708;SHT31;68037;51.978;5.650;2023-03-01T11:09:17;8.5;37.9
78708;SHT31;68037;51.978;5.650;2023-03-01T11:11:52;8.6;37.1
78708;SHT31;68037;51.978;5.650;2023-03-01T11:14:23;8.6;36.8
78708;SHT31;68037;51.978;5.650;2023-03-01T11:17:01;8.7;37.2
78708;SHT31;68037;51.978;5.650;2023-03-01T11:19:34;8.7;36.9
78708;SHT31;68037;51.978;5.650;2023-03-01T11:22:10;8.8;38.7
78708;SHT31;68037;51.978;5.650;2023-03-01T11:24:45;8.8;36.9
78708;SHT31;68037;51.978;5.650;2023-03-01T11:27:21;8.9;36.8
78708;SHT31;68037;51.978;5.650;2023-03-01T11:29:57;8.9;36.6
78708;SHT31;68037;51.978;5.650;2023-03-01T11:32:34;9.0;36.7
78708;SHT31;68037;51.978;5.650;2023-03-01T11:35:15;9.1;37.3
78708;SHT31;68037;51.978;5.650;2023-03-01T11:37:58;9.1;36.1
78708;SHT31;68037;51.978;5.650;2023-03-01T11:40:32;9.2;35.0
78708;SHT31;68037;51.978;5.650;2023-03-01T11:43:15;9.2;35.7
78708;SHT31;68037;51.978;5.650;2023-03-01T11:46:07;9.3;34.9
78708;SHT31;68037;51.978;5.650;2023-03-01T11:48:55;9.4;34.9
78708;SHT31;68037;51.978;5.650;2023-03-01T11:51:44;9.6;35.1
78708;SHT31;68037;51.978;5.650;2023-03-01T11:54:40;9.8;34.5
78708;SHT31;68037;51.978;5.650;2023-03-01T11:57:18;10.0;34.4
78708;SHT31;68037;51.978;5.650;2023-03-01T12:00:04;10.1;34.8
78708;SHT31;68037;51.978;5.650;2023-03-01T12:03:00;10.1;34.2
78708;SHT31;68037;51.978;5.650;2023-03-01T12:07:49;10.2;34.6
78708;SHT31;68037;51.978;5.650;2023-03-01T12:10:26;10.4;33.7
78708;SHT31;68037;51.978;5.650;2023-03-01T12:13:13;10.4;33.9
78708;SHT31;68037;51.978;5.650;2023-03-01T12:16:06;10.4;33.4
78708;SHT31;68037;51.978;5.650;2023-03-01T12:19:14;10.4;33.9
78708;SHT31;68037;51.978;5.650;2023-03-01T12:22:04;10.4;33.9
78708;SHT31;68037;51.978;5.650;2023-03-01T12:24:51;10.4;34.3
78708;SHT31;68037;51.978;5.650;2023-03-01T12:27:40;10.4;34.0
78708;SHT31;68037;51.978;5.650;2023-03-01T12:30:28;10.3;34.0
78708;SHT31;68037;51.978;5.650;2023-03-01T12:33:17;10.3;34.5
78708;SHT31;68037;51.978;5.650;2023-03-01T12:36:06;10.3;34.5
78708;SHT31;68037;51.978;5.650;2023-03-01T12:38:42;10.2;34.0
78708;SHT31;68037;51.978;5.650;2023-03-01T12:41:48;10.2;34.0
78708;SHT31;68037;51.978;5.650;2023-03-01T12:44:34;10.1;34.1
78708;SHT31;68037;51.978;5.650;2023-03-01T12:47:19;10.1;34.4
78708;SHT31;68037;51.978;5.650;2023-03-01T12:49:54;10.1;34.2
78708;SHT31;68037;51.978;5.650;2023-03-01T12:52:35;10.1;34.7
78708;SHT31;68037;51.978;5.650;2023-03-01T12:55:20;10.1;34.2
78708;SHT31;68037;51.978;5.650;2023-03-01T12:57:59;10.1;33.9
78708;SHT31;68037;51.978;5.650;2023-03-01T13:00:35;10.1;33.9
78708;SHT31;68037;51.978;5.650;2023-03-01T13:03:19;10.1;34.4
78708;SHT31;68037;51.978;5.650;2023-03-01T13:06:07;10.1;34.6
78708;SHT31;68037;51.978;5.650;2023-03-01T13:08:42;10.2;34.3
78708;SHT31;68037;51.978;5.650;2023-03-01T13:11:17;10.3;33.9
78708;SHT31;68037;51.978;5.650;2023-03-01T13:13:48;10.3;33.8
78708;SHT31;68037;51.978;5.650;2023-03-01T13:16:41;10.4;34.0
78708;SHT31;68037;51.978;5.650;2023-03-01T13:19:16;10.4;33.3
78708;SHT31;68037;51.978;5.650;2023-03-01T13:21:48;10.5;32.9
78708;SHT31;68037;51.978;5.650;2023-03-01T13:24:33;10.5;32.8
78708;SHT31;68037;51.978;5.650;2023-03-01T13:27:23;10.6;32.8
78708;SHT31;68037;51.978;5.650;2023-03-01T13:29:58;10.6;32.6
78708;SHT31;68037;51.978;5.650;2023-03-01T13:32:34;10.7;33.4
78708;SHT31;68037;51.978;5.650;2023-03-01T13:35:58;10.8;32.8
78708;SHT31;68037;51.978;5.650;2023-03-01T13:38:48;10.8;33.5
78708;SHT31;68037;51.978;5.650;2023-03-01T13:41:50;10.9;33.0
78708;SHT31;68037;51.978;5.650;2023-03-01T13:44:26;10.9;33.7
78708;SHT31;68037;51.978;5.650;2023-03-01T13:47:01;10.9;32.7
78708;SHT31;68037;51.978;5.650;2023-03-01T13:49:41;10.9;32.4
78708;SHT31;68037;51.978;5.650;2023-03-01T13:52:46;10.9;32.5
78708;SHT31;68037;51.978;5.650;2023-03-01T13:55:21;10.9;32.6
78708;SHT31;68037;51.978;5.650;2023-03-01T13:57:55;10.9;32.4
78708;SHT31;68037;51.978;5.650;2023-03-01T14:00:33;10.9;33.9
78708;SHT31;68037;51.978;5.650;2023-03-01T14:03:10;10.9;34.2
78708;SHT31;68037;51.978;5.650;2023-03-01T14:05:42;11.0;33.8
78708;SHT31;68037;51.978;5.650;2023-03-01T14:08:23;11.1;32.9
78708;SHT31;68037;51.978;5.650;2023-03-01T14:11:29;11.2;32.4
78708;SHT31;68037;51.978;5.650;2023-03-01T14:14:16;11.3;31.9
78708;SHT31;68037;51.978;5.650;2023-03-01T14:16:59;11.3;31.5
78708;SHT31;68037;51.978;5.650;2023-03-01T14:19:33;11.3;32.0
78708;SHT31;68037;51.978;5.650;2023-03-01T14:22:14;11.3;32.1
78708;SHT31;68037;51.978;5.650;2023-03-01T14:24:51;11.3;31.1
78708;SHT31;68037;51.978;5.650;2023-03-01T14:27:23;11.3;31.6
78708;SHT31;68037;51.978;5.650;2023-03-01T14:29:57;11.3;31.6
78708;SHT31;68037;51.978;5.650;2023-03-01T14:32:29;11.3;31.5
78708;SHT31;68037;51.978;5.650;2023-03-01T14:35:00;11.2;32.1
78708;SHT31;68037;51.978;5.650;2023-03-01T14:37:31;11.2;31.9
78708;SHT31;68037;51.978;5.650;2023-03-01T14:40:04;11.2;31.6
78708;SHT31;68037;51.978;5.650;2023-03-01T14:42:36;11.2;32.2
78708;SHT31;68037;51.978;5.650;2023-03-01T14:45:14;11.2;31.6
78708;SHT31;68037;51.978;5.650;2023-03-01T14:47:47;11.3;32.0
78708;SHT31;68037;51.978;5.650;2023-03-01T14:50:22;11.3;31.7
78708;SHT31;68037;51.978;5.650;2023-03-01T14:52:56;11.4;32.5
78708;SHT31;68037;51.978;5.650;2023-03-01T14:55:31;11.5;32.1
78708;SHT31;68037;51.978;5.650;2023-03-01T14:58:04;11.5;31.5
78708;SHT31;68037;51.978;5.650;2023-03-01T15:00:37;11.6;31.7
78708;SHT31;68037;51.978;5.650;2023-03-01T15:03:14;11.7;31.9
78708;SHT31;68037;51.978;5.650;2023-03-01T15:05:47;11.8;31.3
78708;SHT31;68037;51.978;5.650;2023-03-01T15:08:21;11.8;30.4
78708;SHT31;68037;51.978;5.650;2023-03-01T15:11:00;11.9;30.7
78708;SHT31;68037;51.978;5.650;2023-03-01T15:13:33;11.9;29.9
78708;SHT31;68037;51.978;5.650;2023-03-01T15:16:12;11.9;29.9
78708;SHT31;68037;51.978;5.650;2023-03-01T15:18:47;11.9;30.2
78708;SHT31;68037;51.978;5.650;2023-03-01T15:21:22;12.0;30.4
78708;SHT31;68037;51.978;5.650;2023-03-01T15:23:56;11.9;31.2
78708;SHT31;68037;51.978;5.650;2023-03-01T15:26:30;11.9;30.4
78708;SHT31;68037;51.978;5.650;2023-03-01T15:29:00;11.9;29.5
78708;SHT31;68037;51.978;5.650;2023-03-01T15:31:33;11.8;29.5
78708;SHT31;68037;51.978;5.650;2023-03-01T15:34:10;11.8;29.1
78708;SHT31;68037;51.978;5.650;2023-03-01T15:36:45;11.7;29.3
78708;SHT31;68037;51.978;5.650;2023-03-01T15:39:38;11.6;30.1
78708;SHT31;68037;51.978;5.650;2023-03-01T15:42:12;11.4;30.0
78708;SHT31;68037;51.978;5.650;2023-03-01T15:44:43;11.3;30.6
78708;SHT31;68037;51.978;5.650;2023-03-01T15:47:26;11.2;30.6
78708;SHT31;68037;51.978;5.650;2023-03-01T15:49:57;11.0;30.6
78708;SHT31;68037;51.978;5.650;2023-03-01T15:52:29;10.9;30.0
78708;SHT31;68037;51.978;5.650;2023-03-01T15:55:05;10.8;30.0
78708;SHT31;68037;51.978;5.650;2023-03-01T15:57:38;10.8;30.6
78708;SHT31;68037;51.978;5.650;2023-03-01T16:00:09;10.7;30.8
78708;SHT31;68037;51.978;5.650;2023-03-01T16:02:42;10.6;30.9
78708;SHT31;68037;51.978;5.650;2023-03-01T16:05:18;10.5;31.4
78708;SHT31;68037;51.978;5.650;2023-03-01T16:07:48;10.5;30.7
78708;SHT31;68037;51.978;5.650;2023-03-01T16:10:18;10.4;31.7
78708;SHT31;68037;51.978;5.650;2023-03-01T16:12:48;10.4;31.8
78708;SHT31;68037;51.978;5.650;2023-03-01T16:15:21;10.4;31.6
78708;SHT31;68037;51.978;5.650;2023-03-01T16:17:51;10.3;31.5
78708;SHT31;68037;51.978;5.650;2023-03-01T16:20:22;10.3;31.4
78708;SHT31;68037;51.978;5.650;2023-03-01T16:22:52;10.3;31.7
78708;SHT31;68037;51.978;5.650;2023-03-01T16:25:22;10.2;31.5
78708;SHT31;68037;51.978;5.650;2023-03-01T16:27:51;10.2;31.9
78708;SHT31;68037;51.978;5.650;2023-03-01T16:30:23;10.2;31.9
78708;SHT31;68037;51.978;5.650;2023-03-01T16:32:54;10.2;32.5
78708;SHT31;68037;51.978;5.650;2023-03-01T16:35:24;10.1;32.4
78708;SHT31;68037;51.978;5.650;2023-03-01T16:37:53;10.2;31.6
78708;SHT31;68037;51.978;5.650;2023-03-01T16:40:25;10.2;31.5
78708;SHT31;68037;51.978;5.650;2023-03-01T16:42:56;10.2;32.9
78708;SHT31;68037;51.978;5.650;2023-03-01T16:45:33;10.2;31.9
78708;SHT31;68037;51.978;5.650;2023-03-01T16:48:04;10.3;32.1
78708;SHT31;68037;51.978;5.650;2023-03-01T16:50:34;10.3;32.2
78708;SHT31;68037;51.978;5.650;2023-03-01T16:53:03;10.3;32.1
78708;SHT31;68037;51.978;5.650;2023-03-01T16:55:33;10.3;32.6
78708;SHT31;68037;51.978;5.650;2023-03-01T16:58:04;10.3;32.5
78708;SHT31;68037;51.978;5.650;2023-03-01T17:00:33;10.3;32.3